sensor_id;sensor_type;location;lat;lon;timestamp;pressure;altitude;pressure_sealevel;temperature;humidity
13767;BME280;47980;48.794;9.176;2023-06-26T00:02:24;98161.88;;;22.90;50.40
13767;BME280;47980;48.794;9.176;2023-06-26T00:04:55;98154.50;;;22.90;51.01
13767;BME280;47980;48.794;9.176;2023-06-26T00:07:27;98157.25;;;22.87;51.46
13767;BME280;47980;48.794;9.176;2023-06-26T00:09:59;98154.50;;;22.94;50.80
13767;BME280;47980;48.794;9.176;2023-06-26T00:12:32;98159.16;;;22.90;50.33
13767;BME280;47980;48.794;9.176;2023-06-26T00:15:04;98158.09;;;22.80;50.82
13767;BME280;47980;48.794;9.176;2023-06-26T00:17:37;98154.03;;;22.65;51.74
13767;BME280;47980;48.794;9.176;2023-06-26T00:20:09;98154.94;;;22.51;52.24
13767;BME280;47980;48.794;9.176;2023-06-26T00:22:40;98154.34;;;22.36;53.06
13767;BME280;47980;48.794;9.176;2023-06-26T00:25:12;98154.84;;;22.24;52.93
13767;BME280;47980;48.794;9.176;2023-06-26T00:27:45;98158.34;;;22.21;53.49
13767;BME280;47980;48.794;9.176;2023-06-26T00:30:16;98161.06;;;22.21;52.63
13767;BME280;47980;48.794;9.176;2023-06-26T00:32:50;98159.19;;;22.10;53.32
13767;BME280;47980;48.794;9.176;2023-06-26T00:35:22;98157.69;;;22.06;53.35
13767;BME280;47980;48.794;9.176;2023-06-26T00:37:53;98156.28;;;21.91;53.86
13767;BME280;47980;48.794;9.176;2023-06-26T00:40:25;98159.75;;;21.91;54.52
13767;BME280;47980;48.794;9.176;2023-06-26T00:42:58;98159.78;;;21.87;54.56
13767;BME280;47980;48.794;9.176;2023-06-26T00:45:29;98153.19;;;21.88;54.70
13767;BME280;47980;48.794;9.176;2023-06-26T00:48:01;98152.50;;;21.77;55.80
13767;BME280;47980;48.794;9.176;2023-06-26T00:50:33;98158.72;;;21.74;55.62
13767;BME280;47980;48.794;9.176;2023-06-26T00:53:05;98149.50;;;21.68;55.91
13767;BME280;47980;48.794;9.176;2023-06-26T00:55:37;98152.63;;;21.63;55.63
13767;BME280;47980;48.794;9.176;2023-06-26T00:58:10;98144.94;;;21.58;55.99
13767;BME280;47980;48.794;9.176;2023-06-26T01:00:41;98145.34;;;21.53;56.89
13767;BME280;47980;48.794;9.176;2023-06-26T01:03:15;98149.28;;;21.45;55.92
13767;BME280;47980;48.794;9.176;2023-06-26T01:05:47;98148.91;;;21.43;56.93
13767;BME280;47980;48.794;9.176;2023-06-26T01:08:20;98145.44;;;21.38;56.13
13767;BME280;47980;48.794;9.176;2023-06-26T01:10:51;98153.16;;;21.44;57.01
13767;BME280;47980;48.794;9.176;2023-06-26T01:13:24;98143.16;;;21.33;57.50
13767;BME280;47980;48.794;9.176;2023-06-26T01:15:57;98153.19;;;21.29;58.42
13767;BME280;47980;48.794;9.176;2023-06-26T01:18:30;98147.38;;;21.38;56.67
13767;BME280;47980;48.794;9.176;2023-06-26T01:21:02;98145.09;;;21.29;58.00
13767;BME280;47980;48.794;9.176;2023-06-26T01:23:38;98143.94;;;21.27;56.78
13767;BME280;47980;48.794;9.176;2023-06-26T01:26:17;98145.81;;;21.44;56.44
13767;BME280;47980;48.794;9.176;2023-06-26T01:28:51;98135.84;;;21.30;57.35
13767;BME280;47980;48.794;9.176;2023-06-26T01:31:24;98140.44;;;21.37;57.23
13767;BME280;47980;48.794;9.176;2023-06-26T01:33:56;98129.19;;;21.46;57.08
13767;BME280;47980;48.794;9.176;2023-06-26T01:36:28;98128.94;;;21.22;57.83
13767;BME280;47980;48.794;9.176;2023-06-26T01:39:00;98129.38;;;21.17;59.17
13767;BME280;47980;48.794;9.176;2023-06-26T01:41:33;98127.09;;;21.08;59.48
13767;BME280;47980;48.794;9.176;2023-06-26T01:44:13;98127.06;;;21.12;59.32
13767;BME280;47980;48.794;9.176;2023-06-26T01:46:54;98127.88;;;21.05;57.15
13767;BME280;47980;48.794;9.176;2023-06-26T01:49:36;98117.09;;;21.05;58.80
13767;BME280;47980;48.794;9.176;2023-06-26T01:52:16;98125.13;;;21.12;58.48
13767;BME280;47980;48.794;9.176;2023-06-26T01:54:55;98124.78;;;21.10;58.99
13767;BME280;47980;48.794;9.176;2023-06-26T01:57:30;98120.19;;;21.04;57.95
13767;BME280;47980;48.794;9.176;2023-06-26T02:00:03;98119.38;;;21.10;56.72
13767;BME280;47980;48.794;9.176;2023-06-26T02:02:36;98114.75;;;21.11;57.21
13767;BME280;47980;48.794;9.176;2023-06-26T02:05:07;98118.22;;;21.11;57.55
13767;BME280;47980;48.794;9.176;2023-06-26T02:07:39;98115.88;;;21.17;56.57
13767;BME280;47980;48.794;9.176;2023-06-26T02:10:11;98119.69;;;21.23;56.45
13767;BME280;47980;48.794;9.176;2023-06-26T02:12:44;98120.81;;;21.29;56.00
13767;BME280;47980;48.794;9.176;2023-06-26T02:15:15;98128.50;;;21.31;56.31
13767;BME280;47980;48.794;9.176;2023-06-26T02:20:18;98115.09;;;21.16;56.77
13767;BME280;47980;48.794;9.176;2023-06-26T02:22:49;98124.75;;;21.14;58.05
13767;BME280;47980;48.794;9.176;2023-06-26T02:25:21;98121.72;;;21.01;58.08
13767;BME280;47980;48.794;9.176;2023-06-26T02:27:54;98121.78;;;20.90;58.30
13767;BME280;47980;48.794;9.176;2023-06-26T02:30:26;98124.44;;;21.01;57.96
13767;BME280;47980;48.794;9.176;2023-06-26T02:32:57;98125.66;;;20.89;59.70
13767;BME280;47980;48.794;9.176;2023-06-26T02:35:29;98124.53;;;20.76;60.42
13767;BME280;47980;48.794;9.176;2023-06-26T02:38:00;98122.25;;;20.75;59.94
13767;BME280;47980;48.794;9.176;2023-06-26T02:40:32;98123.75;;;20.79;59.56
13767;BME280;47980;48.794;9.176;2023-06-26T02:43:05;98120.72;;;20.74;60.96
13767;BME280;47980;48.794;9.176;2023-06-26T02:45:36;98124.19;;;20.71;60.72
13767;BME280;47980;48.794;9.176;2023-06-26T02:48:08;98123.44;;;20.66;61.05
13767;BME280;47980;48.794;9.176;2023-06-26T02:50:39;98121.88;;;20.65;61.05
13767;BME280;47980;48.794;9.176;2023-06-26T02:53:11;98118.06;;;20.59;61.44
13767;BME280;47980;48.794;9.176;2023-06-26T02:55:42;98122.31;;;20.57;61.72
13767;BME280;47980;48.794;9.176;2023-06-26T02:58:15;98115.38;;;20.49;62.46
13767;BME280;47980;48.794;9.176;2023-06-26T03:00:47;98122.72;;;20.37;62.58
13767;BME280;47980;48.794;9.176;2023-06-26T03:03:19;98123.09;;;20.36;61.74
13767;BME280;47980;48.794;9.176;2023-06-26T03:05:50;98128.88;;;20.45;62.30
13767;BME280;47980;48.794;9.176;2023-06-26T03:08:22;98116.94;;;20.42;62.76
13767;BME280;47980;48.794;9.176;2023-06-26T03:10:53;98114.25;;;20.32;62.66
13767;BME280;47980;48.794;9.176;2023-06-26T03:13:26;98116.94;;;20.39;63.39
13767;BME280;47980;48.794;9.176;2023-06-26T03:15:57;98121.56;;;20.38;62.89
13767;BME280;47980;48.794;9.176;2023-06-26T03:18:29;98118.09;;;20.38;62.83
13767;BME280;47980;48.794;9.176;2023-06-26T03:21:00;98116.16;;;20.42;62.24
13767;BME280;47980;48.794;9.176;2023-06-26T03:23:32;98117.34;;;20.41;62.52
13767;BME280;47980;48.794;9.176;2023-06-26T03:26:03;98120.03;;;20.37;62.23
13767;BME280;47980;48.794;9.176;2023-06-26T03:28:36;98124.63;;;20.37;62.48
13767;BME280;47980;48.794;9.176;2023-06-26T03:31:08;98117.72;;;20.36;63.35
13767;BME280;47980;48.794;9.176;2023-06-26T03:33:39;98121.91;;;20.44;62.03
13767;BME280;47980;48.794;9.176;2023-06-26T03:36:11;98123.84;;;20.47;62.47
13767;BME280;47980;48.794;9.176;2023-06-26T03:38:42;98117.25;;;20.66;62.06
13767;BME280;47980;48.794;9.176;2023-06-26T03:41:14;98121.44;;;20.85;61.44
13767;BME280;47980;48.794;9.176;2023-06-26T03:43:47;98123.28;;;20.99;60.51
13767;BME280;47980;48.794;9.176;2023-06-26T03:46:19;98126.22;;;21.29;60.58
13767;BME280;47980;48.794;9.176;2023-06-26T03:48:50;98121.47;;;21.96;58.58
13767;BME280;47980;48.794;9.176;2023-06-26T03:51:22;98121.41;;;22.48;56.46
13767;BME280;47980;48.794;9.176;2023-06-26T03:53:53;98133.53;;;23.01;55.24
13767;BME280;47980;48.794;9.176;2023-06-26T03:56:25;98134.22;;;23.36;53.66
13767;BME280;47980;48.794;9.176;2023-06-26T03:58:58;98131.72;;;23.76;52.73
13767;BME280;47980;48.794;9.176;2023-06-26T04:01:29;98131.19;;;24.08;52.62
13767;BME280;47980;48.794;9.176;2023-06-26T04:04:01;98122.28;;;24.08;51.70
13767;BME280;47980;48.794;9.176;2023-06-26T04:06:32;98131.88;;;24.32;51.57
13767;BME280;47980;48.794;9.176;2023-06-26T04:09:04;98130.41;;;24.71;50.25
13767;BME280;47980;48.794;9.176;2023-06-26T04:11:36;98128.19;;;24.66;50.47
13767;BME280;47980;48.794;9.176;2023-06-26T04:14:08;98125.16;;;25.36;49.71
13767;BME280;47980;48.794;9.176;2023-06-26T04:16:40;98126.06;;;25.82;49.31
13767;BME280;47980;48.794;9.176;2023-06-26T04:19:12;98131.50;;;25.82;49.03
13767;BME280;47980;48.794;9.176;2023-06-26T04:21:44;98137.06;;;26.08;47.28
13767;BME280;47980;48.794;9.176;2023-06-26T04:24:15;98138.09;;;27.14;44.44
13767;BME280;47980;48.794;9.176;2023-06-26T04:26:47;98134.50;;;27.43;43.36
13767;BME280;47980;48.794;9.176;2023-06-26T04:29:20;98139.78;;;27.84;42.49
13767;BME280;47980;48.794;9.176;2023-06-26T04:31:51;98136.91;;;27.28;43.84
13767;BME280;47980;48.794;9.176;2023-06-26T04:34:28;98134.44;;;27.04;44.61
13767;BME280;47980;48.794;9.176;2023-06-26T04:37:03;98134.91;;;27.16;46.36
13767;BME280;47980;48.794;9.176;2023-06-26T04:39:35;98132.38;;;27.08;46.47
13767;BME280;47980;48.794;9.176;2023-06-26T04:42:08;98131.88;;;27.39;45.23
13767;BME280;47980;48.794;9.176;2023-06-26T04:44:42;98138.31;;;27.45;44.49
13767;BME280;47980;48.794;9.176;2023-06-26T04:47:13;98143.09;;;27.28;45.62
13767;BME280;47980;48.794;9.176;2023-06-26T04:49:45;98127.41;;;25.90;48.42
13767;BME280;47980;48.794;9.176;2023-06-26T04:52:17;98135.81;;;25.80;48.13
13767;BME280;47980;48.794;9.176;2023-06-26T04:54:48;98132.28;;;25.14;50.57
13767;BME280;47980;48.794;9.176;2023-06-26T04:57:20;98119.84;;;24.77;50.51
13767;BME280;47980;48.794;9.176;2023-06-26T04:59:53;98133.84;;;24.55;51.44
13767;BME280;47980;48.794;9.176;2023-06-26T05:02:24;98123.31;;;24.57;49.59
13767;BME280;47980;48.794;9.176;2023-06-26T05:04:57;98130.78;;;24.73;49.99
13767;BME280;47980;48.794;9.176;2023-06-26T05:07:28;98131.78;;;24.99;49.35
13767;BME280;47980;48.794;9.176;2023-06-26T05:10:00;98123.19;;;25.01;50.12
13767;BME280;47980;48.794;9.176;2023-06-26T05:12:31;98121.84;;;25.09;49.93
13767;BME280;47980;48.794;9.176;2023-06-26T05:15:05;98122.34;;;25.24;49.61
13767;BME280;47980;48.794;9.176;2023-06-26T05:17:36;98126.00;;;25.17;49.57
13767;BME280;47980;48.794;9.176;2023-06-26T05:20:09;98127.81;;;25.40;48.97
13767;BME280;47980;48.794;9.176;2023-06-26T05:22:41;98132.50;;;25.88;47.92
13767;BME280;47980;48.794;9.176;2023-06-26T05:25:13;98129.00;;;25.55;48.22
13767;BME280;47980;48.794;9.176;2023-06-26T05:27:46;98123.72;;;25.48;47.62
13767;BME280;47980;48.794;9.176;2023-06-26T05:30:20;98130.59;;;25.36;48.94
13767;BME280;47980;48.794;9.176;2023-06-26T05:32:52;98133.41;;;25.65;48.89
13767;BME280;47980;48.794;9.176;2023-06-26T05:35:24;98130.09;;;25.74;48.91
13767;BME280;47980;48.794;9.176;2023-06-26T05:37:59;98129.41;;;25.70;49.17
13767;BME280;47980;48.794;9.176;2023-06-26T05:40:33;98133.09;;;25.80;48.93
13767;BME280;47980;48.794;9.176;2023-06-26T05:43:05;98138.78;;;25.69;49.43
13767;BME280;47980;48.794;9.176;2023-06-26T05:45:38;98136.78;;;25.01;49.92
13767;BME280;47980;48.794;9.176;2023-06-26T05:48:10;98143.59;;;25.09;49.35
13767;BME280;47980;48.794;9.176;2023-06-26T05:50:44;98135.19;;;25.56;48.98
13767;BME280;47980;48.794;9.176;2023-06-26T05:53:16;98133.50;;;25.62;49.37
13767;BME280;47980;48.794;9.176;2023-06-26T05:55:48;98139.69;;;25.62;48.39
13767;BME280;47980;48.794;9.176;2023-06-26T05:58:21;98137.94;;;25.88;48.34
13767;BME280;47980;48.794;9.176;2023-06-26T06:00:54;98149.63;;;25.36;49.51
13767;BME280;47980;48.794;9.176;2023-06-26T06:03:25;98134.25;;;25.30;50.16
13767;BME280;47980;48.794;9.176;2023-06-26T06:05:57;98137.84;;;25.43;49.97
13767;BME280;47980;48.794;9.176;2023-06-26T06:08:29;98141.66;;;26.11;47.88
13767;BME280;47980;48.794;9.176;2023-06-26T06:11:00;98136.19;;;26.27;48.31
13767;BME280;47980;48.794;9.176;2023-06-26T06:13:32;98135.38;;;25.98;48.25
13767;BME280;47980;48.794;9.176;2023-06-26T06:16:05;98137.41;;;26.39;48.63
13767;BME280;47980;48.794;9.176;2023-06-26T06:18:37;98132.34;;;25.79;49.34
13767;BME280;47980;48.794;9.176;2023-06-26T06:21:08;98129.69;;;26.08;47.62
13767;BME280;47980;48.794;9.176;2023-06-26T06:23:40;98137.34;;;25.64;48.87
13767;BME280;47980;48.794;9.176;2023-06-26T06:26:11;98137.84;;;25.76;48.78
13767;BME280;47980;48.794;9.176;2023-06-26T06:28:43;98135.97;;;25.89;49.24
13767;BME280;47980;48.794;9.176;2023-06-26T06:31:16;98138.59;;;25.92;49.56
13767;BME280;47980;48.794;9.176;2023-06-26T06:33:47;98141.53;;;26.31;48.42
13767;BME280;47980;48.794;9.176;2023-06-26T06:36:19;98140.63;;;26.50;48.46
13767;BME280;47980;48.794;9.176;2023-06-26T06:38:50;98146.59;;;26.00;48.25
13767;BME280;47980;48.794;9.176;2023-06-26T06:41:22;98139.78;;;26.53;47.85
13767;BME280;47980;48.794;9.176;2023-06-26T06:43:53;98141.41;;;26.93;46.59
13767;BME280;47980;48.794;9.176;2023-06-26T06:46:26;98142.56;;;26.79;47.80
13767;BME280;47980;48.794;9.176;2023-06-26T06:48:58;98145.56;;;26.39;49.03
13767;BME280;47980;48.794;9.176;2023-06-26T06:51:30;98148.09;;;27.30;47.14
13767;BME280;47980;48.794;9.176;2023-06-26T06:54:02;98154.03;;;26.86;46.85
13767;BME280;47980;48.794;9.176;2023-06-26T06:56:33;98154.69;;;26.91;47.13
13767;BME280;47980;48.794;9.176;2023-06-26T06:59:05;98154.31;;;27.18;46.97
13767;BME280;47980;48.794;9.176;2023-06-26T07:01:39;98151.16;;;27.32;46.04
13767;BME280;47980;48.794;9.176;2023-06-26T07:04:10;98151.34;;;27.63;46.02
13767;BME280;47980;48.794;9.176;2023-06-26T07:06:42;98143.75;;;27.32;45.67
13767;BME280;47980;48.794;9.176;2023-06-26T07:09:13;98153.75;;;27.74;45.63
13767;BME280;47980;48.794;9.176;2023-06-26T07:11:45;98145.78;;;27.92;45.55
13767;BME280;47980;48.794;9.176;2023-06-26T07:14:16;98149.06;;;27.49;46.47
13767;BME280;47980;48.794;9.176;2023-06-26T07:16:49;98141.63;;;28.00;45.34
13767;BME280;47980;48.794;9.176;2023-06-26T07:19:21;98140.47;;;28.23;44.59
13767;BME280;47980;48.794;9.176;2023-06-26T07:21:52;98135.88;;;28.55;44.18
13767;BME280;47980;48.794;9.176;2023-06-26T07:24:24;98145.84;;;28.49;43.91
13767;BME280;47980;48.794;9.176;2023-06-26T07:26:55;98150.97;;;28.12;45.81
13767;BME280;47980;48.794;9.176;2023-06-26T07:29:27;98141.25;;;28.68;44.27
13767;BME280;47980;48.794;9.176;2023-06-26T07:32:00;98144.09;;;28.86;43.62
13767;BME280;47980;48.794;9.176;2023-06-26T07:34:31;98144.47;;;28.75;43.49
13767;BME280;47980;48.794;9.176;2023-06-26T07:37:03;98149.41;;;29.52;43.38
13767;BME280;47980;48.794;9.176;2023-06-26T07:39:34;98138.66;;;29.58;43.11
13767;BME280;47980;48.794;9.176;2023-06-26T07:42:06;98141.50;;;29.45;41.91
13767;BME280;47980;48.794;9.176;2023-06-26T07:44:38;98147.66;;;29.58;41.97
13767;BME280;47980;48.794;9.176;2023-06-26T07:47:11;98139.13;;;29.56;42.00
13767;BME280;47980;48.794;9.176;2023-06-26T07:49:42;98136.59;;;29.80;41.76
13767;BME280;47980;48.794;9.176;2023-06-26T07:52:14;98141.56;;;30.22;40.96
13767;BME280;47980;48.794;9.176;2023-06-26T07:54:46;98149.13;;;30.55;40.13
13767;BME280;47980;48.794;9.176;2023-06-26T07:57:17;98142.09;;;30.90;39.77
13767;BME280;47980;48.794;9.176;2023-06-26T07:59:50;98134.81;;;30.60;40.61
13767;BME280;47980;48.794;9.176;2023-06-26T08:02:23;98141.16;;;30.93;40.07
13767;BME280;47980;48.794;9.176;2023-06-26T08:04:54;98142.53;;;30.89;40.43
13767;BME280;47980;48.794;9.176;2023-06-26T08:07:26;98129.28;;;31.39;39.51
13767;BME280;47980;48.794;9.176;2023-06-26T08:09:57;98125.22;;;31.25;38.39
13767;BME280;47980;48.794;9.176;2023-06-26T08:12:29;98127.44;;;31.69;38.75
13767;BME280;47980;48.794;9.176;2023-06-26T08:15:00;98124.00;;;31.83;38.06
13767;BME280;47980;48.794;9.176;2023-06-26T08:17:34;98125.13;;;32.01;37.84
13767;BME280;47980;48.794;9.176;2023-06-26T08:20:06;98125.91;;;31.44;38.04
13767;BME280;47980;48.794;9.176;2023-06-26T08:22:39;98122.53;;;31.49;38.01
13767;BME280;47980;48.794;9.176;2023-06-26T08:25:11;98125.97;;;31.59;36.77
13767;BME280;47980;48.794;9.176;2023-06-26T08:27:43;98131.47;;;31.92;37.68
13767;BME280;47980;48.794;9.176;2023-06-26T08:30:14;98121.59;;;31.76;36.79
13767;BME280;47980;48.794;9.176;2023-06-26T08:32:47;98118.06;;;31.18;36.80
13767;BME280;47980;48.794;9.176;2023-06-26T08:35:18;98122.94;;;31.24;38.36
13767;BME280;47980;48.794;9.176;2023-06-26T08:37:50;98118.50;;;31.26;38.26
13767;BME280;47980;48.794;9.176;2023-06-26T08:40:21;98115.53;;;31.72;37.12
13767;BME280;47980;48.794;9.176;2023-06-26T08:42:53;98117.34;;;31.75;36.64
13767;BME280;47980;48.794;9.176;2023-06-26T08:45:25;98123.78;;;31.72;36.73
13767;BME280;47980;48.794;9.176;2023-06-26T08:48:00;98118.06;;;31.18;37.96
13767;BME280;47980;48.794;9.176;2023-06-26T08:50:35;98121.38;;;31.65;36.55
13767;BME280;47980;48.794;9.176;2023-06-26T08:53:10;98121.16;;;31.78;37.77
13767;BME280;47980;48.794;9.176;2023-06-26T08:55:46;98120.50;;;31.83;36.80
13767;BME280;47980;48.794;9.176;2023-06-26T08:58:20;98123.19;;;32.16;36.06
13767;BME280;47980;48.794;9.176;2023-06-26T09:00:52;98120.31;;;32.64;36.10
13767;BME280;47980;48.794;9.176;2023-06-26T09:03:27;98119.84;;;32.66;36.05
13767;BME280;47980;48.794;9.176;2023-06-26T09:05:59;98122.69;;;32.42;36.00
13767;BME280;47980;48.794;9.176;2023-06-26T09:08:30;98118.97;;;32.06;36.51
13767;BME280;47980;48.794;9.176;2023-06-26T09:11:02;98117.47;;;32.05;36.13
13767;BME280;47980;48.794;9.176;2023-06-26T09:13:34;98122.91;;;32.14;36.76
13767;BME280;47980;48.794;9.176;2023-06-26T09:16:07;98125.34;;;32.12;36.12
13767;BME280;47980;48.794;9.176;2023-06-26T09:18:41;98120.44;;;32.16;36.25
13767;BME280;47980;48.794;9.176;2023-06-26T09:21:13;98122.59;;;32.51;35.95
13767;BME280;47980;48.794;9.176;2023-06-26T09:23:46;98111.69;;;32.86;35.43
13767;BME280;47980;48.794;9.176;2023-06-26T09:26:18;98113.28;;;31.95;36.68
13767;BME280;47980;48.794;9.176;2023-06-26T09:28:49;98109.63;;;32.12;35.79
13767;BME280;47980;48.794;9.176;2023-06-26T09:31:23;98112.25;;;32.75;34.25
13767;BME280;47980;48.794;9.176;2023-06-26T09:33:59;98103.50;;;32.18;36.02
13767;BME280;47980;48.794;9.176;2023-06-26T09:36:32;98101.25;;;32.46;34.58
13767;BME280;47980;48.794;9.176;2023-06-26T09:39:07;98099.16;;;33.15;33.86
13767;BME280;47980;48.794;9.176;2023-06-26T09:41:41;98104.41;;;32.83;34.74
13767;BME280;47980;48.794;9.176;2023-06-26T09:44:14;98096.59;;;33.11;34.10
13767;BME280;47980;48.794;9.176;2023-06-26T09:46:46;98100.31;;;33.08;34.79
13767;BME280;47980;48.794;9.176;2023-06-26T09:49:18;98096.72;;;33.93;33.10
13767;BME280;47980;48.794;9.176;2023-06-26T09:51:50;98097.25;;;34.69;32.19
13767;BME280;47980;48.794;9.176;2023-06-26T09:54:23;98102.84;;;34.02;33.43
13767;BME280;47980;48.794;9.176;2023-06-26T09:56:55;98097.16;;;33.91;33.46
13767;BME280;47980;48.794;9.176;2023-06-26T09:59:27;98093.34;;;33.27;34.87
13767;BME280;47980;48.794;9.176;2023-06-26T10:01:59;98098.56;;;33.25;35.27
13767;BME280;47980;48.794;9.176;2023-06-26T10:04:33;98107.97;;;32.30;36.22
13767;BME280;47980;48.794;9.176;2023-06-26T10:07:06;98107.94;;;32.15;36.68
13767;BME280;47980;48.794;9.176;2023-06-26T10:09:42;98108.00;;;32.45;36.84
13767;BME280;47980;48.794;9.176;2023-06-26T10:12:17;98098.47;;;31.44;38.13
13767;BME280;47980;48.794;9.176;2023-06-26T10:14:49;98097.41;;;32.13;36.81
13767;BME280;47980;48.794;9.176;2023-06-26T10:17:25;98099.53;;;32.33;37.27
13767;BME280;47980;48.794;9.176;2023-06-26T10:20:02;98099.31;;;32.61;36.98
13767;BME280;47980;48.794;9.176;2023-06-26T10:22:40;98100.84;;;32.38;38.04
13767;BME280;47980;48.794;9.176;2023-06-26T10:25:16;98092.03;;;32.34;37.46
13767;BME280;47980;48.794;9.176;2023-06-26T10:27:52;98096.72;;;31.80;38.84
13767;BME280;47980;48.794;9.176;2023-06-26T10:30:26;98104.22;;;31.79;38.91
13767;BME280;47980;48.794;9.176;2023-06-26T10:32:59;98106.09;;;31.49;40.90
13767;BME280;47980;48.794;9.176;2023-06-26T10:35:34;98111.88;;;31.09;41.12
13767;BME280;47980;48.794;9.176;2023-06-26T10:38:12;98120.81;;;31.18;39.84
13767;BME280;47980;48.794;9.176;2023-06-26T10:40:45;98114.56;;;32.23;39.15
13767;BME280;47980;48.794;9.176;2023-06-26T10:43:18;98122.22;;;32.43;39.07
13767;BME280;47980;48.794;9.176;2023-06-26T10:45:54;98131.88;;;32.53;38.30
13767;BME280;47980;48.794;9.176;2023-06-26T10:48:29;98122.25;;;31.71;37.80
13767;BME280;47980;48.794;9.176;2023-06-26T10:51:13;98129.72;;;32.19;36.67
13767;BME280;47980;48.794;9.176;2023-06-26T10:53:50;98133.47;;;32.45;36.42
13767;BME280;47980;48.794;9.176;2023-06-26T10:56:44;98133.56;;;33.25;35.85
13767;BME280;47980;48.794;9.176;2023-06-26T10:59:18;98123.47;;;33.37;35.65
13767;BME280;47980;48.794;9.176;2023-06-26T11:01:54;98129.34;;;33.09;36.25
13767;BME280;47980;48.794;9.176;2023-06-26T11:04:44;98123.56;;;31.52;37.79
13767;BME280;47980;48.794;9.176;2023-06-26T11:07:19;98135.66;;;32.41;37.63
13767;BME280;47980;48.794;9.176;2023-06-26T11:09:58;98134.38;;;32.96;37.04
13767;BME280;47980;48.794;9.176;2023-06-26T11:12:34;98124.97;;;32.43;36.92
13767;BME280;47980;48.794;9.176;2023-06-26T11:15:09;98126.19;;;32.42;38.17
13767;BME280;47980;48.794;9.176;2023-06-26T11:17:43;98123.88;;;33.29;36.73
13767;BME280;47980;48.794;9.176;2023-06-26T11:20:15;98144.72;;;33.01;37.95
13767;BME280;47980;48.794;9.176;2023-06-26T11:22:52;98142.91;;;32.98;36.85
13767;BME280;47980;48.794;9.176;2023-06-26T11:25:24;98136.22;;;32.90;37.00
13767;BME280;47980;48.794;9.176;2023-06-26T11:27:55;98144.22;;;32.73;37.40
13767;BME280;47980;48.794;9.176;2023-06-26T11:30:27;98142.69;;;32.72;37.44
13767;BME280;47980;48.794;9.176;2023-06-26T11:33:03;98136.28;;;32.36;38.23
13767;BME280;47980;48.794;9.176;2023-06-26T11:35:35;98148.16;;;32.57;37.93
13767;BME280;47980;48.794;9.176;2023-06-26T11:38:09;98143.91;;;32.56;38.12
13767;BME280;47980;48.794;9.176;2023-06-26T11:40:40;98145.44;;;32.18;38.45
13767;BME280;47980;48.794;9.176;2023-06-26T11:43:12;98155.66;;;32.71;38.12
13767;BME280;47980;48.794;9.176;2023-06-26T11:45:44;98145.25;;;32.90;38.35
13767;BME280;47980;48.794;9.176;2023-06-26T11:48:16;98153.72;;;33.51;37.43
13767;BME280;47980;48.794;9.176;2023-06-26T11:50:50;98157.31;;;32.39;38.51
13767;BME280;47980;48.794;9.176;2023-06-26T11:53:23;98174.72;;;32.21;38.95
13767;BME280;47980;48.794;9.176;2023-06-26T11:55:54;98167.03;;;31.77;40.18
13767;BME280;47980;48.794;9.176;2023-06-26T11:58:27;98167.34;;;31.46;41.58
13767;BME280;47980;48.794;9.176;2023-06-26T12:00:58;98167.84;;;30.84;42.83
13767;BME280;47980;48.794;9.176;2023-06-26T12:03:31;98180.91;;;30.89;42.65
13767;BME280;47980;48.794;9.176;2023-06-26T12:06:03;98176.41;;;31.19;42.73
13767;BME280;47980;48.794;9.176;2023-06-26T12:08:37;98174.19;;;32.08;42.19
13767;BME280;47980;48.794;9.176;2023-06-26T12:11:10;98163.16;;;31.93;41.45
13767;BME280;47980;48.794;9.176;2023-06-26T12:13:44;98173.44;;;32.07;41.72
13767;BME280;47980;48.794;9.176;2023-06-26T12:16:17;98178.09;;;31.59;41.72
13767;BME280;47980;48.794;9.176;2023-06-26T12:18:48;98167.41;;;31.70;42.12
13767;BME280;47980;48.794;9.176;2023-06-26T12:21:45;98175.63;;;31.28;43.66
13767;BME280;47980;48.794;9.176;2023-06-26T12:24:19;98179.97;;;31.86;42.01
13767;BME280;47980;48.794;9.176;2023-06-26T12:26:53;98172.03;;;31.55;42.59
13767;BME280;47980;48.794;9.176;2023-06-26T12:29:32;98168.53;;;31.54;42.63
13767;BME280;47980;48.794;9.176;2023-06-26T12:32:08;98164.00;;;31.75;42.96
13767;BME280;47980;48.794;9.176;2023-06-26T12:34:40;98167.97;;;31.74;42.90
13767;BME280;47980;48.794;9.176;2023-06-26T12:37:11;98165.94;;;32.32;41.80
13767;BME280;47980;48.794;9.176;2023-06-26T12:39:50;98165.91;;;31.93;42.88
13767;BME280;47980;48.794;9.176;2023-06-26T12:42:23;98161.53;;;31.77;43.27
13767;BME280;47980;48.794;9.176;2023-06-26T12:44:55;98162.28;;;31.87;42.68
13767;BME280;47980;48.794;9.176;2023-06-26T12:47:28;98157.94;;;31.71;42.13
13767;BME280;47980;48.794;9.176;2023-06-26T12:50:05;98165.25;;;31.98;41.27
13767;BME280;47980;48.794;9.176;2023-06-26T12:52:37;98150.38;;;32.14;41.17
13767;BME280;47980;48.794;9.176;2023-06-26T12:55:10;98164.31;;;32.01;41.51
13767;BME280;47980;48.794;9.176;2023-06-26T12:57:41;98149.25;;;31.97;41.31
13767;BME280;47980;48.794;9.176;2023-06-26T13:00:14;98157.03;;;31.65;41.64
13767;BME280;47980;48.794;9.176;2023-06-26T13:02:45;98157.72;;;31.51;41.34
13767;BME280;47980;48.794;9.176;2023-06-26T13:05:17;98158.22;;;31.49;42.63
13767;BME280;47980;48.794;9.176;2023-06-26T13:07:49;98164.34;;;31.68;41.89
13767;BME280;47980;48.794;9.176;2023-06-26T13:10:22;98162.53;;;31.32;42.24
13767;BME280;47980;48.794;9.176;2023-06-26T13:12:53;98162.84;;;31.67;42.26
13767;BME280;47980;48.794;9.176;2023-06-26T13:15:25;98164.00;;;31.75;41.17
13767;BME280;47980;48.794;9.176;2023-06-26T13:17:57;98165.94;;;31.84;40.88
13767;BME280;47980;48.794;9.176;2023-06-26T13:20:28;98153.75;;;31.85;41.72
13767;BME280;47980;48.794;9.176;2023-06-26T13:23:00;98166.53;;;31.88;40.88
13767;BME280;47980;48.794;9.176;2023-06-26T13:25:33;98162.34;;;31.69;41.31
13767;BME280;47980;48.794;9.176;2023-06-26T13:28:05;98154.13;;;31.69;41.01
13767;BME280;47980;48.794;9.176;2023-06-26T13:30:36;98160.53;;;31.65;40.24
13767;BME280;47980;48.794;9.176;2023-06-26T13:33:08;98161.75;;;31.98;40.41